sensor_id;sensor_type;location;lat;lon;timestamp;temperature;humidity
23124;DHT22;11731;48.592;8.858;2022-12-18T00:00:46;-9.10;95.30
23124;DHT22;11731;48.592;8.858;2022-12-18T00:03:14;-9.10;94.90
23124;DHT22;11731;48.592;8.858;2022-12-18T00:05:47;-9.10;94.60
23124;DHT22;11731;48.592;8.858;2022-12-18T00:08:15;-9.40;94.40
23124;DHT22;11731;48.592;8.858;2022-12-18T00:10:42;-9.40;95.00
23124;DHT22;11731;48.592;8.858;2022-12-18T00:13:10;-9.30;95.30
23124;DHT22;11731;48.592;8.858;2022-12-18T00:15:38;-9.40;95.30
23124;DHT22;11731;48.592;8.858;2022-12-18T00:18:06;-9.50;95.50
23124;DHT22;11731;48.592;8.858;2022-12-18T00:20:36;-9.60;95.90
23124;DHT22;11731;48.592;8.858;2022-12-18T00:23:05;-10.00;96.30
23124;DHT22;11731;48.592;8.858;2022-12-18T00:25:33;-9.90;96.70
23124;DHT22;11731;48.592;8.858;2022-12-18T00:28:01;-9.90;96.60
23124;DHT22;11731;48.592;8.858;2022-12-18T00:30:28;-9.90;96.50
23124;DHT22;11731;48.592;8.858;2022-12-18T00:32:54;-10.10;96.50
23124;DHT22;11731;48.592;8.858;2022-12-18T00:35:21;-10.00;96.70
23124;DHT22;11731;48.592;8.858;2022-12-18T00:37:48;-9.90;96.80
23124;DHT22;11731;48.592;8.858;2022-12-18T00:40:17;-9.80;97.10
23124;DHT22;11731;48.592;8.858;2022-12-18T00:42:43;-9.50;96.60
23124;DHT22;11731;48.592;8.858;2022-12-18T00:45:22;-9.30;96.20
23124;DHT22;11731;48.592;8.858;2022-12-18T00:47:49;-9.20;95.90
23124;DHT22;11731;48.592;8.858;2022-12-18T00:50:16;-9.30;95.50
23124;DHT22;11731;48.592;8.858;2022-12-18T00:52:43;-9.30;95.20
23124;DHT22;11731;48.592;8.858;2022-12-18T00:55:10;-9.20;95.10
23124;DHT22;11731;48.592;8.858;2022-12-18T00:57:39;-9.00;95.20
23124;DHT22;11731;48.592;8.858;2022-12-18T01:00:09;-9.00;94.40
23124;DHT22;11731;48.592;8.858;2022-12-18T01:02:36;-9.00;94.10
23124;DHT22;11731;48.592;8.858;2022-12-18T01:05:04;-8.90;93.60
23124;DHT22;11731;48.592;8.858;2022-12-18T01:07:31;-9.20;93.80
23124;DHT22;11731;48.592;8.858;2022-12-18T01:09:58;-9.20;93.90
23124;DHT22;11731;48.592;8.858;2022-12-18T01:12:24;-9.20;93.80
23124;DHT22;11731;48.592;8.858;2022-12-18T01:14:53;-9.40;93.90
23124;DHT22;11731;48.592;8.858;2022-12-18T01:17:21;-9.50;94.00
23124;DHT22;11731;48.592;8.858;2022-12-18T01:19:48;-9.20;94.00
23124;DHT22;11731;48.592;8.858;2022-12-18T01:22:15;-9.30;93.50
23124;DHT22;11731;48.592;8.858;2022-12-18T01:24:42;-9.30;93.30
23124;DHT22;11731;48.592;8.858;2022-12-18T01:27:09;-9.40;93.10
23124;DHT22;11731;48.592;8.858;2022-12-18T01:29:36;-9.70;93.30
23124;DHT22;11731;48.592;8.858;2022-12-18T01:32:04;-9.90;94.30
23124;DHT22;11731;48.592;8.858;2022-12-18T01:34:31;-10.10;94.10
23124;DHT22;11731;48.592;8.858;2022-12-18T01:36:58;-10.20;95.10
23124;DHT22;11731;48.592;8.858;2022-12-18T01:39:25;-10.10;95.00
23124;DHT22;11731;48.592;8.858;2022-12-18T01:41:51;-9.90;94.70
23124;DHT22;11731;48.592;8.858;2022-12-18T01:45:05;-9.90;94.90
23124;DHT22;11731;48.592;8.858;2022-12-18T01:47:37;-9.50;95.20
23124;DHT22;11731;48.592;8.858;2022-12-18T01:50:09;-9.30;95.00
23124;DHT22;11731;48.592;8.858;2022-12-18T01:52:37;-9.20;95.20
23124;DHT22;11731;48.592;8.858;2022-12-18T01:55:06;-9.20;95.50
23124;DHT22;11731;48.592;8.858;2022-12-18T01:57:33;-8.90;95.90
23124;DHT22;11731;48.592;8.858;2022-12-18T02:00:04;-8.80;95.50
23124;DHT22;11731;48.592;8.858;2022-12-18T02:02:31;-8.60;95.10
23124;DHT22;11731;48.592;8.858;2022-12-18T02:05:00;-8.60;95.20
23124;DHT22;11731;48.592;8.858;2022-12-18T02:07:34;-8.60;95.00
23124;DHT22;11731;48.592;8.858;2022-12-18T02:10:07;-9.10;95.30
23124;DHT22;11731;48.592;8.858;2022-12-18T02:12:42;-8.80;95.80
23124;DHT22;11731;48.592;8.858;2022-12-18T02:15:14;-8.60;95.50
23124;DHT22;11731;48.592;8.858;2022-12-18T02:17:47;-8.50;95.40
23124;DHT22;11731;48.592;8.858;2022-12-18T02:20:20;-8.70;95.50
23124;DHT22;11731;48.592;8.858;2022-12-18T02:23:00;-8.80;95.40
23124;DHT22;11731;48.592;8.858;2022-12-18T02:25:43;-8.70;96.10
23124;DHT22;11731;48.592;8.858;2022-12-18T02:28:15;-8.70;96.30
23124;DHT22;11731;48.592;8.858;2022-12-18T02:30:45;-8.50;96.00
23124;DHT22;11731;48.592;8.858;2022-12-18T02:33:13;-8.50;96.00
23124;DHT22;11731;48.592;8.858;2022-12-18T02:35:42;-8.60;96.20
23124;DHT22;11731;48.592;8.858;2022-12-18T02:38:11;-8.60;96.30
23124;DHT22;11731;48.592;8.858;2022-12-18T02:40:39;-8.60;96.50
23124;DHT22;11731;48.592;8.858;2022-12-18T02:43:11;-8.30;96.50
23124;DHT22;11731;48.592;8.858;2022-12-18T02:45:48;-8.50;96.40
23124;DHT22;11731;48.592;8.858;2022-12-18T02:48:17;-8.50;96.70
23124;DHT22;11731;48.592;8.858;2022-12-18T02:50:50;-8.50;96.30
23124;DHT22;11731;48.592;8.858;2022-12-18T02:53:26;-8.30;96.20
23124;DHT22;11731;48.592;8.858;2022-12-18T02:56:07;-8.20;95.80
23124;DHT22;11731;48.592;8.858;2022-12-18T02:58:42;-8.30;95.70
23124;DHT22;11731;48.592;8.858;2022-12-18T03:01:16;-8.50;95.90
23124;DHT22;11731;48.592;8.858;2022-12-18T03:03:49;-8.50;96.40
23124;DHT22;11731;48.592;8.858;2022-12-18T03:06:23;-8.20;96.30
23124;DHT22;11731;48.592;8.858;2022-12-18T03:08:56;-8.00;96.10
23124;DHT22;11731;48.592;8.858;2022-12-18T03:11:26;-7.90;95.60
23124;DHT22;11731;48.592;8.858;2022-12-18T03:14:09;-7.80;95.80
23124;DHT22;11731;48.592;8.858;2022-12-18T03:16:40;-7.70;95.60
23124;DHT22;11731;48.592;8.858;2022-12-18T03:19:11;-7.30;95.70
23124;DHT22;11731;48.592;8.858;2022-12-18T03:21:43;-7.10;95.20
23124;DHT22;11731;48.592;8.858;2022-12-18T03:24:12;-7.30;95.40
23124;DHT22;11731;48.592;8.858;2022-12-18T03:26:42;-7.40;95.40
23124;DHT22;11731;48.592;8.858;2022-12-18T03:29:14;-7.30;95.60
23124;DHT22;11731;48.592;8.858;2022-12-18T03:31:49;-7.50;95.70
23124;DHT22;11731;48.592;8.858;2022-12-18T03:34:21;-7.40;95.80
23124;DHT22;11731;48.592;8.858;2022-12-18T03:36:50;-7.20;95.70
23124;DHT22;11731;48.592;8.858;2022-12-18T03:39:16;-6.80;95.10
23124;DHT22;11731;48.592;8.858;2022-12-18T03:41:44;-6.80;94.90
23124;DHT22;11731;48.592;8.858;2022-12-18T03:44:19;-7.00;95.50
23124;DHT22;11731;48.592;8.858;2022-12-18T03:46:55;-6.70;95.50
23124;DHT22;11731;48.592;8.858;2022-12-18T03:49:27;-6.80;95.60
23124;DHT22;11731;48.592;8.858;2022-12-18T03:52:02;-6.60;95.50
23124;DHT22;11731;48.592;8.858;2022-12-18T03:54:31;-6.40;95.30
23124;DHT22;11731;48.592;8.858;2022-12-18T03:57:02;-6.30;95.30
23124;DHT22;11731;48.592;8.858;2022-12-18T03:59:31;-6.30;95.20
23124;DHT22;11731;48.592;8.858;2022-12-18T04:02:01;-6.30;95.40
23124;DHT22;11731;48.592;8.858;2022-12-18T04:04:30;-6.50;95.30
23124;DHT22;11731;48.592;8.858;2022-12-18T04:06:58;-6.90;95.70
23124;DHT22;11731;48.592;8.858;2022-12-18T04:09:26;-6.90;96.70
23124;DHT22;11731;48.592;8.858;2022-12-18T04:11:53;-6.60;96.80
23124;DHT22;11731;48.592;8.858;2022-12-18T04:14:20;-6.40;96.30
23124;DHT22;11731;48.592;8.858;2022-12-18T04:16:47;-6.20;96.10
23124;DHT22;11731;48.592;8.858;2022-12-18T04:19:15;-6.00;95.70
23124;DHT22;11731;48.592;8.858;2022-12-18T04:21:42;-6.20;95.50
23124;DHT22;11731;48.592;8.858;2022-12-18T04:24:09;-6.30;95.70
23124;DHT22;11731;48.592;8.858;2022-12-18T04:26:36;-6.10;95.80
23124;DHT22;11731;48.592;8.858;2022-12-18T04:29:03;-6.00;95.90
23124;DHT22;11731;48.592;8.858;2022-12-18T04:31:30;-5.80;95.70
23124;DHT22;11731;48.592;8.858;2022-12-18T04:33:57;-5.60;95.80
23124;DHT22;11731;48.592;8.858;2022-12-18T04:38:54;-5.50;96.00
23124;DHT22;11731;48.592;8.858;2022-12-18T04:41:21;-5.50;95.70
23124;DHT22;11731;48.592;8.858;2022-12-18T04:43:48;-5.60;95.70
23124;DHT22;11731;48.592;8.858;2022-12-18T04:46:15;-5.80;95.80
23124;DHT22;11731;48.592;8.858;2022-12-18T04:48:41;-6.00;96.20
23124;DHT22;11731;48.592;8.858;2022-12-18T04:51:08;-6.00;96.50
23124;DHT22;11731;48.592;8.858;2022-12-18T04:53:35;-5.90;96.50
23124;DHT22;11731;48.592;8.858;2022-12-18T04:56:05;-6.10;96.30
23124;DHT22;11731;48.592;8.858;2022-12-18T04:58:32;-6.50;96.80
23124;DHT22;11731;48.592;8.858;2022-12-18T05:00:59;-6.60;96.80
23124;DHT22;11731;48.592;8.858;2022-12-18T05:03:26;-6.40;96.80
23124;DHT22;11731;48.592;8.858;2022-12-18T05:05:53;-6.50;96.50
23124;DHT22;11731;48.592;8.858;2022-12-18T05:08:20;-6.70;97.00
23124;DHT22;11731;48.592;8.858;2022-12-18T05:10:46;-6.40;97.10
23124;DHT22;11731;48.592;8.858;2022-12-18T05:13:15;-6.40;96.70
23124;DHT22;11731;48.592;8.858;2022-12-18T05:15:41;-6.80;96.50
23124;DHT22;11731;48.592;8.858;2022-12-18T05:18:08;-6.80;97.10
23124;DHT22;11731;48.592;8.858;2022-12-18T05:20:35;-6.70;97.20
23124;DHT22;11731;48.592;8.858;2022-12-18T05:23:02;-6.60;97.30
23124;DHT22;11731;48.592;8.858;2022-12-18T05:25:29;-6.40;97.10
23124;DHT22;11731;48.592;8.858;2022-12-18T05:27:56;-6.30;97.10
23124;DHT22;11731;48.592;8.858;2022-12-18T05:30:24;-6.30;97.10
23124;DHT22;11731;48.592;8.858;2022-12-18T05:32:51;-6.30;97.00
23124;DHT22;11731;48.592;8.858;2022-12-18T05:35:18;-6.50;97.20
23124;DHT22;11731;48.592;8.858;2022-12-18T05:37:45;-6.60;97.50
23124;DHT22;11731;48.592;8.858;2022-12-18T05:40:12;-6.40;98.00
23124;DHT22;11731;48.592;8.858;2022-12-18T05:42:39;-6.20;97.60
23124;DHT22;11731;48.592;8.858;2022-12-18T05:45:06;-6.00;97.50
23124;DHT22;11731;48.592;8.858;2022-12-18T05:47:35;-5.90;97.10
23124;DHT22;11731;48.592;8.858;2022-12-18T05:50:02;-5.80;96.60
23124;DHT22;11731;48.592;8.858;2022-12-18T05:52:28;-6.00;96.80
23124;DHT22;11731;48.592;8.858;2022-12-18T05:54:56;-6.40;97.30
23124;DHT22;11731;48.592;8.858;2022-12-18T05:57:24;-6.40;97.70
23124;DHT22;11731;48.592;8.858;2022-12-18T05:59:51;-6.30;97.50
23124;DHT22;11731;48.592;8.858;2022-12-18T06:02:18;-6.20;97.10
23124;DHT22;11731;48.592;8.858;2022-12-18T06:04:47;-6.30;96.80
23124;DHT22;11731;48.592;8.858;2022-12-18T06:07:14;-6.70;97.10
23124;DHT22;11731;48.592;8.858;2022-12-18T06:09:41;-6.90;97.40
23124;DHT22;11731;48.592;8.858;2022-12-18T06:12:08;-6.90;97.70
23124;DHT22;11731;48.592;8.858;2022-12-18T06:14:36;-7.20;97.70
23124;DHT22;11731;48.592;8.858;2022-12-18T06:17:02;-7.50;98.90
23124;DHT22;11731;48.592;8.858;2022-12-18T06:19:29;-7.30;98.80
23124;DHT22;11731;48.592;8.858;2022-12-18T06:21:57;-7.10;98.80
23124;DHT22;11731;48.592;8.858;2022-12-18T06:24:25;-6.80;98.90
23124;DHT22;11731;48.592;8.858;2022-12-18T06:26:52;-6.60;98.50
23124;DHT22;11731;48.592;8.858;2022-12-18T06:29:18;-6.20;98.00
23124;DHT22;11731;48.592;8.858;2022-12-18T06:31:45;-6.30;97.40
23124;DHT22;11731;48.592;8.858;2022-12-18T06:34:12;-6.20;97.50
23124;DHT22;11731;48.592;8.858;2022-12-18T06:36:39;-6.20;97.40
23124;DHT22;11731;48.592;8.858;2022-12-18T06:39:07;-6.30;97.20
23124;DHT22;11731;48.592;8.858;2022-12-18T06:41:34;-6.20;97.10
23124;DHT22;11731;48.592;8.858;2022-12-18T06:44:01;-6.20;96.80
23124;DHT22;11731;48.592;8.858;2022-12-18T06:46:28;-6.30;97.10
23124;DHT22;11731;48.592;8.858;2022-12-18T06:48:55;-6.20;96.90
23124;DHT22;11731;48.592;8.858;2022-12-18T06:51:24;-6.40;96.80
23124;DHT22;11731;48.592;8.858;2022-12-18T06:53:51;-6.50;97.10
23124;DHT22;11731;48.592;8.858;2022-12-18T06:56:19;-6.50;96.90
23124;DHT22;11731;48.592;8.858;2022-12-18T06:58:46;-6.50;96.90
23124;DHT22;11731;48.592;8.858;2022-12-18T07:01:13;-6.50;97.00
23124;DHT22;11731;48.592;8.858;2022-12-18T07:03:41;-6.40;96.70
23124;DHT22;11731;48.592;8.858;2022-12-18T07:06:13;-6.50;96.40
23124;DHT22;11731;48.592;8.858;2022-12-18T07:08:40;-6.70;96.90
23124;DHT22;11731;48.592;8.858;2022-12-18T07:11:07;-6.90;96.30
23124;DHT22;11731;48.592;8.858;2022-12-18T07:13:35;-7.10;96.50
23124;DHT22;11731;48.592;8.858;2022-12-18T07:16:07;-7.10;96.70
23124;DHT22;11731;48.592;8.858;2022-12-18T07:18:34;-6.90;96.90
23124;DHT22;11731;48.592;8.858;2022-12-18T07:21:03;-6.70;96.50
23124;DHT22;11731;48.592;8.858;2022-12-18T07:23:32;-6.60;96.40
23124;DHT22;11731;48.592;8.858;2022-12-18T07:26:01;-6.80;95.60
23124;DHT22;11731;48.592;8.858;2022-12-18T07:28:28;-7.20;96.10
23124;DHT22;11731;48.592;8.858;2022-12-18T07:30:57;-7.50;96.00
23124;DHT22;11731;48.592;8.858;2022-12-18T07:33:24;-7.80;96.10
23124;DHT22;11731;48.592;8.858;2022-12-18T07:35:51;-8.00;96.50
23124;DHT22;11731;48.592;8.858;2022-12-18T07:38:18;-7.90;96.30
23124;DHT22;11731;48.592;8.858;2022-12-18T07:40:46;-8.00;96.50
23124;DHT22;11731;48.592;8.858;2022-12-18T07:43:12;-8.20;96.40
23124;DHT22;11731;48.592;8.858;2022-12-18T07:45:39;-8.50;96.70
23124;DHT22;11731;48.592;8.858;2022-12-18T07:48:07;-8.50;97.00
23124;DHT22;11731;48.592;8.858;2022-12-18T07:50:34;-8.20;97.20
23124;DHT22;11731;48.592;8.858;2022-12-18T07:53:01;-8.30;96.90
23124;DHT22;11731;48.592;8.858;2022-12-18T07:55:30;-8.40;97.20
23124;DHT22;11731;48.592;8.858;2022-12-18T07:58:00;-8.10;97.70
23124;DHT22;11731;48.592;8.858;2022-12-18T08:00:27;-8.10;97.60
23124;DHT22;11731;48.592;8.858;2022-12-18T08:02:54;-8.10;97.80
23124;DHT22;11731;48.592;8.858;2022-12-18T08:05:23;-7.80;97.70
23124;DHT22;11731;48.592;8.858;2022-12-18T08:07:49;-7.70;97.80
23124;DHT22;11731;48.592;8.858;2022-12-18T08:10:16;-7.20;97.30
23124;DHT22;11731;48.592;8.858;2022-12-18T08:12:43;-7.40;96.80
23124;DHT22;11731;48.592;8.858;2022-12-18T08:15:10;-7.20;96.60
23124;DHT22;11731;48.592;8.858;2022-12-18T08:17:37;-7.20;96.50
23124;DHT22;11731;48.592;8.858;2022-12-18T08:20:05;-7.00;96.20
23124;DHT22;11731;48.592;8.858;2022-12-18T08:22:35;-6.90;95.90
23124;DHT22;11731;48.592;8.858;2022-12-18T08:25:02;-7.20;96.20
23124;DHT22;11731;48.592;8.858;2022-12-18T08:27:29;-7.40;96.50
23124;DHT22;11731;48.592;8.858;2022-12-18T08:29:56;-7.50;96.60
23124;DHT22;11731;48.592;8.858;2022-12-18T08:32:23;-7.30;96.50
23124;DHT22;11731;48.592;8.858;2022-12-18T08:34:49;-7.00;96.30
23124;DHT22;11731;48.592;8.858;2022-12-18T08:37:16;-6.80;95.40
23124;DHT22;11731;48.592;8.858;2022-12-18T08:39:45;-6.80;94.70
23124;DHT22;11731;48.592;8.858;2022-12-18T08:42:11;-7.10;94.50
23124;DHT22;11731;48.592;8.858;2022-12-18T08:44:56;-7.50;95.20
23124;DHT22;11731;48.592;8.858;2022-12-18T08:47:22;-7.30;95.50
23124;DHT22;11731;48.592;8.858;2022-12-18T08:49:51;-7.30;95.20
23124;DHT22;11731;48.592;8.858;2022-12-18T08:52:18;-7.20;95.20
23124;DHT22;11731;48.592;8.858;2022-12-18T08:54:46;-7.20;95.30
23124;DHT22;11731;48.592;8.858;2022-12-18T08:57:13;-7.00;95.20
23124;DHT22;11731;48.592;8.858;2022-12-18T08:59:40;-7.10;95.10
23124;DHT22;11731;48.592;8.858;2022-12-18T09:02:08;-7.00;95.10
23124;DHT22;11731;48.592;8.858;2022-12-18T09:04:35;-6.70;95.30
23124;DHT22;11731;48.592;8.858;2022-12-18T09:07:02;-6.80;94.80
23124;DHT22;11731;48.592;8.858;2022-12-18T09:09:29;-6.70;94.90
23124;DHT22;11731;48.592;8.858;2022-12-18T09:11:57;-6.70;94.80
23124;DHT22;11731;48.592;8.858;2022-12-18T09:14:24;-7.30;94.90
23124;DHT22;11731;48.592;8.858;2022-12-18T09:16:51;-7.50;95.90
23124;DHT22;11731;48.592;8.858;2022-12-18T09:19:18;-7.60;96.10
23124;DHT22;11731;48.592;8.858;2022-12-18T09:21:45;-7.40;96.30
23124;DHT22;11731;48.592;8.858;2022-12-18T09:24:12;-7.10;95.90
23124;DHT22;11731;48.592;8.858;2022-12-18T09:26:40;-6.70;95.60
23124;DHT22;11731;48.592;8.858;2022-12-18T09:29:08;-6.60;95.20
23124;DHT22;11731;48.592;8.858;2022-12-18T09:31:35;-6.30;94.80
23124;DHT22;11731;48.592;8.858;2022-12-18T09:34:07;-6.40;94.90
23124;DHT22;11731;48.592;8.858;2022-12-18T09:36:34;-6.40;94.90
23124;DHT22;11731;48.592;8.858;2022-12-18T09:39:01;-6.10;95.00
23124;DHT22;11731;48.592;8.858;2022-12-18T09:41:41;-6.10;95.00
23124;DHT22;11731;48.592;8.858;2022-12-18T09:44:18;-6.00;94.90
23124;DHT22;11731;48.592;8.858;2022-12-18T09:46:49;-5.80;94.90
23124;DHT22;11731;48.592;8.858;2022-12-18T09:49:19;-6.00;94.90
23124;DHT22;11731;48.592;8.858;2022-12-18T09:51:52;-6.00;95.10
23124;DHT22;11731;48.592;8.858;2022-12-18T09:54:22;-6.00;95.20
23124;DHT22;11731;48.592;8.858;2022-12-18T09:56:53;-5.90;95.20
23124;DHT22;11731;48.592;8.858;2022-12-18T09:59:32;-5.40;95.00
23124;DHT22;11731;48.592;8.858;2022-12-18T10:02:12;-4.90;94.80
23124;DHT22;11731;48.592;8.858;2022-12-18T10:04:41;-4.70;94.30
23124;DHT22;11731;48.592;8.858;2022-12-18T10:07:14;-4.50;93.70
23124;DHT22;11731;48.592;8.858;2022-12-18T10:09:46;-4.50;93.50
23124;DHT22;11731;48.592;8.858;2022-12-18T10:12:21;-4.80;94.50
23124;DHT22;11731;48.592;8.858;2022-12-18T10:14:58;-4.70;94.70
23124;DHT22;11731;48.592;8.858;2022-12-18T10:17:30;-4.70;94.90
23124;DHT22;11731;48.592;8.858;2022-12-18T10:20:04;-4.90;95.50
23124;DHT22;11731;48.592;8.858;2022-12-18T10:22:43;-4.70;95.50
23124;DHT22;11731;48.592;8.858;2022-12-18T10:25:19;-4.30;95.50
23124;DHT22;11731;48.592;8.858;2022-12-18T10:27:52;-4.20;95.10
23124;DHT22;11731;48.592;8.858;2022-12-18T10:30:23;-4.10;95.20
23124;DHT22;11731;48.592;8.858;2022-12-18T10:32:51;-3.70;95.00
23124;DHT22;11731;48.592;8.858;2022-12-18T10:35:20;-4.00;95.00
23124;DHT22;11731;48.592;8.858;2022-12-18T10:38:02;-3.90;95.20
23124;DHT22;11731;48.592;8.858;2022-12-18T10:40:50;-4.00;95.60
23124;DHT22;11731;48.592;8.858;2022-12-18T10:43:30;-4.20;95.70
23124;DHT22;11731;48.592;8.858;2022-12-18T10:46:35;-4.00;95.70
23124;DHT22;11731;48.592;8.858;2022-12-18T10:48:56;-3.90;95.60
23124;DHT22;11731;48.592;8.858;2022-12-18T10:51:27;-3.50;95.50
23124;DHT22;11731;48.592;8.858;2022-12-18T10:53:57;-3.00;94.90
23124;DHT22;11731;48.592;8.858;2022-12-18T10:56:27;-2.40;94.40
23124;DHT22;11731;48.592;8.858;2022-12-18T10:58:57;-2.20;93.70
23124;DHT22;11731;48.592;8.858;2022-12-18T11:01:26;-1.90;93.30
23124;DHT22;11731;48.592;8.858;2022-12-18T11:04:02;-2.10;93.70
23124;DHT22;11731;48.592;8.858;2022-12-18T11:06:29;-2.10;94.20
23124;DHT22;11731;48.592;8.858;2022-12-18T11:09:01;-1.80;93.90
23124;DHT22;11731;48.592;8.858;2022-12-18T11:11:28;-1.90;93.90
23124;DHT22;11731;48.592;8.858;2022-12-18T11:14:01;-2.00;93.60
23124;DHT22;11731;48.592;8.858;2022-12-18T11:16:36;-2.00;94.10
23124;DHT22;11731;48.592;8.858;2022-12-18T11:19:21;-2.00;94.30
23124;DHT22;11731;48.592;8.858;2022-12-18T11:37:07;-1.10;94.40
23124;DHT22;11731;48.592;8.858;2022-12-18T11:39:52;-1.10;94.20
23124;DHT22;11731;48.592;8.858;2022-12-18T11:51:48;0.50;93.00
23124;DHT22;11731;48.592;8.858;2022-12-18T11:54:17;0.40;93.60
23124;DHT22;11731;48.592;8.858;2022-12-18T11:56:47;0.10;93.80
23124;DHT22;11731;48.592;8.858;2022-12-18T11:59:21;0.10;94.60
23124;DHT22;11731;48.592;8.858;2022-12-18T12:01:54;-0.20;94.90
23124;DHT22;11731;48.592;8.858;2022-12-18T12:04:46;-0.10;94.80
23124;DHT22;11731;48.592;8.858;2022-12-18T12:07:24;-0.10;94.90
23124;DHT22;11731;48.592;8.858;2022-12-18T12:10:05;-0.40;95.00
23124;DHT22;11731;48.592;8.858;2022-12-18T12:12:42;-0.90;95.80
23124;DHT22;11731;48.592;8.858;2022-12-18T12:15:26;-0.90;96.10
23124;DHT22;11731;48.592;8.858;2022-12-18T12:18:01;-0.60;96.50
23124;DHT22;11731;48.592;8.858;2022-12-18T12:20:42;-0.50;95.40
23124;DHT22;11731;48.592;8.858;2022-12-18T12:23:18;-0.10;96.10
23124;DHT22;11731;48.592;8.858;2022-12-18T12:25:51;-0.10;95.70
23124;DHT22;11731;48.592;8.858;2022-12-18T12:31:41;0.40;95.10
23124;DHT22;11731;48.592;8.858;2022-12-18T12:34:17;0.60;94.90
23124;DHT22;11731;48.592;8.858;2022-12-18T12:36:55;0.90;94.80
23124;DHT22;11731;48.592;8.858;2022-12-18T12:39:30;0.70;95.00
23124;DHT22;11731;48.592;8.858;2022-12-18T12:41:58;0.60;95.10
23124;DHT22;11731;48.592;8.858;2022-12-18T12:44:45;0.90;94.00
23124;DHT22;11731;48.592;8.858;2022-12-18T12:47:16;1.30;94.10
23124;DHT22;11731;48.592;8.858;2022-12-18T12:49:45;1.40;93.40
23124;DHT22;11731;48.592;8.858;2022-12-18T12:52:20;1.50;93.40
23124;DHT22;11731;48.592;8.858;2022-12-18T12:55:06;1.60;93.70
23124;DHT22;11731;48.592;8.858;2022-12-18T12:58:02;1.80;93.90
23124;DHT22;11731;48.592;8.858;2022-12-18T13:01:08;1.80;93.60
23124;DHT22;11731;48.592;8.858;2022-12-18T13:04:05;1.50;94.20
23124;DHT22;11731;48.592;8.858;2022-12-18T13:06:42;1.40;94.40
23124;DHT22;11731;48.592;8.858;2022-12-18T13:09:34;1.10;94.70
23124;DHT22;11731;48.592;8.858;2022-12-18T13:12:32;1.30;94.60
23124;DHT22;11731;48.592;8.858;2022-12-18T13:15:21;1.50;93.80
23124;DHT22;11731;48.592;8.858;2022-12-18T13:17:49;1.70;93.60
23124;DHT22;11731;48.592;8.858;2022-12-18T13:20:33;1.70;93.70
23124;DHT22;11731;48.592;8.858;2022-12-18T13:23:01;1.80;93.90
23124;DHT22;11731;48.592;8.858;2022-12-18T13:25:34;1.60;94.10
23124;DHT22;11731;48.592;8.858;2022-12-18T13:28:11;1.40;94.60
23124;DHT22;11731;48.592;8.858;2022-12-18T13:30:45;1.10;95.10
23124;DHT22;11731;48.592;8.858;2022-12-18T13:33:38;0.70;95.60
23124;DHT22;11731;48.592;8.858;2022-12-18T13:36:13;0.50;96.50
23124;DHT22;11731;48.592;8.858;2022-12-18T13:38:41;0.40;96.20
23124;DHT22;11731;48.592;8.858;2022-12-18T13:41:24;-0.10;96.30
23124;DHT22;11731;48.592;8.858;2022-12-18T13:53:55;-0.40;97.00
23124;DHT22;11731;48.592;8.858;2022-12-18T13:56:44;-0.30;96.50
23124;DHT22;11731;48.592;8.858;2022-12-18T13:59:18;0.00;96.40
23124;DHT22;11731;48.592;8.858;2022-12-18T14:01:47;0.00;96.90
23124;DHT22;11731;48.592;8.858;2022-12-18T14:04:26;0.00;97.10
23124;DHT22;11731;48.592;8.858;2022-12-18T14:06:56;-0.10;97.40
23124;DHT22;11731;48.592;8.858;2022-12-18T14:09:27;0.00;97.70
23124;DHT22;11731;48.592;8.858;2022-12-18T14:11:55;0.30;97.20
23124;DHT22;11731;48.592;8.858;2022-12-18T14:14:45;0.30;96.20
23124;DHT22;11731;48.592;8.858;2022-12-18T14:17:14;0.50;96.30
23124;DHT22;11731;48.592;8.858;2022-12-18T14:19:44;0.60;96.60
23124;DHT22;11731;48.592;8.858;2022-12-18T14:22:15;0.40;96.30
23124;DHT22;11731;48.592;8.858;2022-12-18T14:24:44;0.30;96.20
23124;DHT22;11731;48.592;8.858;2022-12-18T14:27:23;0.40;96.30
23124;DHT22;11731;48.592;8.858;2022-12-18T14:29:51;0.60;96.10
23124;DHT22;11731;48.592;8.858;2022-12-18T14:32:19;0.70;96.20
23124;DHT22;11731;48.592;8.858;2022-12-18T14:38:27;1.10;96.10
23124;DHT22;11731;48.592;8.858;2022-12-18T14:41:35;0.80;96.30
23124;DHT22;11731;48.592;8.858;2022-12-18T14:44:21;0.60;96.20
23124;DHT22;11731;48.592;8.858;2022-12-18T14:47:13;0.80;96.00
23124;DHT22;11731;48.592;8.858;2022-12-18T14:52:58;0.90;96.40
23124;DHT22;11731;48.592;8.858;2022-12-18T14:55:25;1.00;96.00
23124;DHT22;11731;48.592;8.858;2022-12-18T14:57:55;1.20;96.20
23124;DHT22;11731;48.592;8.858;2022-12-18T15:00:24;0.80;96.10
23124;DHT22;11731;48.592;8.858;2022-12-18T15:02:58;0.60;96.50
23124;DHT22;11731;48.592;8.858;2022-12-18T15:05:28;0.40;96.50
23124;DHT22;11731;48.592;8.858;2022-12-18T15:08:00;0.10;97.00
23124;DHT22;11731;48.592;8.858;2022-12-18T15:10:29;-0.10;97.40
23124;DHT22;11731;48.592;8.858;2022-12-18T15:13:09;0.20;97.40
23124;DHT22;11731;48.592;8.858;2022-12-18T15:15:47;0.20;97.20
23124;DHT22;11731;48.592;8.858;2022-12-18T15:18:16;0.10;96.90
23124;DHT22;11731;48.592;8.858;2022-12-18T15:20:46;0.00;97.10
23124;DHT22;11731;48.592;8.858;2022-12-18T15:23:19;-0.10;97.30
23124;DHT22;11731;48.592;8.858;2022-12-18T15:25:48;0.10;97.20
23124;DHT22;11731;48.592;8.858;2022-12-18T15:28:25;0.10;97.00
23124;DHT22;11731;48.592;8.858;2022-12-18T15:31:00;-0.10;97.10
23124;DHT22;11731;48.592;8.858;2022-12-18T15:33:31;-0.10;97.10
23124;DHT22;11731;48.592;8.858;2022-12-18T15:35:59;0.00;96.90
23124;DHT22;11731;48.592;8.858;2022-12-18T15:38:27;-0.20;96.90
23124;DHT22;11731;48.592;8.858;2022-12-18T15:40:56;-0.30;96.80
23124;DHT22;11731;48.592;8.858;2022-12-18T15:43:25;-0.40;97.00
23124;DHT22;11731;48.592;8.858;2022-12-18T15:46:03;-0.40;96.80
23124;DHT22;11731;48.592;8.858;2022-12-18T15:48:32;-0.50;96.90
23124;DHT22;11731;48.592;8.858;2022-12-18T15:51:00;-0.80;97.20
23124;DHT22;11731;48.592;8.858;2022-12-18T15:56:14;-0.90;97.60
23124;DHT22;11731;48.592;8.858;2022-12-18T15:57:48;-0.70;97.50
23124;DHT22;11731;48.592;8.858;2022-12-18T16:00:21;-0.80;97.20
23124;DHT22;11731;48.592;8.858;2022-12-18T16:02:47;-0.80;96.80
23124;DHT22;11731;48.592;8.858;2022-12-18T16:05:16;-0.80;96.90
23124;DHT22;11731;48.592;8.858;2022-12-18T16:07:43;-0.90;97.60
23124;DHT22;11731;48.592;8.858;2022-12-18T16:10:10;-0.80;96.90
23124;DHT22;11731;48.592;8.858;2022-12-18T16:12:40;-1.00;97.20
23124;DHT22;11731;48.592;8.858;2022-12-18T16:15:11;-1.00;97.40
23124;DHT22;11731;48.592;8.858;2022-12-18T16:17:39;-0.80;97.20
23124;DHT22;11731;48.592;8.858;2022-12-18T16:20:07;-0.80;96.40
23124;DHT22;11731;48.592;8.858;2022-12-18T16:22:34;-0.80;97.40
23124;DHT22;11731;48.592;8.858;2022-12-18T16:25:01;-0.90;96.50
23124;DHT22;11731;48.592;8.858;2022-12-18T16:27:29;-1.00;96.90
23124;DHT22;11731;48.592;8.858;2022-12-18T16:29:58;-0.90;97.10
23124;DHT22;11731;48.592;8.858;2022-12-18T16:32:24;-0.90;97.00
23124;DHT22;11731;48.592;8.858;2022-12-18T16:34:51;-0.80;97.10
23124;DHT22;11731;48.592;8.858;2022-12-18T16:37:18;-0.90;97.10
23124;DHT22;11731;48.592;8.858;2022-12-18T16:39:45;-0.80;97.10
23124;DHT22;11731;48.592;8.858;2022-12-18T16:42:14;-0.70;97.10
23124;DHT22;11731;48.592;8.858;2022-12-18T16:44:45;-0.70;97.40